sensor_id;sensor_type;location;lat;lon;timestamp;temperature;humidity
6118;DHT22;3089;48.202;11.510;2023-08-12T00:00:09;20.40;99.90
6118;DHT22;3089;48.202;11.510;2023-08-12T00:02:39;20.30;99.90
6118;DHT22;3089;48.202;11.510;2023-08-12T00:05:09;20.30;99.90
6118;DHT22;3089;48.202;11.510;2023-08-12T00:07:39;20.30;99.90
6118;DHT22;3089;48.202;11.510;2023-08-12T00:10:09;20.20;99.90
6118;DHT22;3089;48.202;11.510;2023-08-12T00:12:37;20.20;99.90
6118;DHT22;3089;48.202;11.510;2023-08-12T00:15:07;20.20;99.90
6118;DHT22;3089;48.202;11.510;2023-08-12T00:17:35;20.10;99.90
6118;DHT22;3089;48.202;11.510;2023-08-12T00:20:05;20.10;99.90
6118;DHT22;3089;48.202;11.510;2023-08-12T00:22:34;20.10;99.90
6118;DHT22;3089;48.202;11.510;2023-08-12T00:25:03;20.10;99.90
6118;DHT22;3089;48.202;11.510;2023-08-12T00:27:31;20.00;99.90
6118;DHT22;3089;48.202;11.510;2023-08-12T00:29:59;20.00;99.90
6118;DHT22;3089;48.202;11.510;2023-08-12T00:32:27;20.00;99.90
6118;DHT22;3089;48.202;11.510;2023-08-12T00:34:55;19.90;99.90
6118;DHT22;3089;48.202;11.510;2023-08-12T00:37:23;19.90;99.90
6118;DHT22;3089;48.202;11.510;2023-08-12T00:39:52;19.90;99.90
6118;DHT22;3089;48.202;11.510;2023-08-12T00:42:20;19.80;99.90
6118;DHT22;3089;48.202;11.510;2023-08-12T00:44:48;19.80;99.90
6118;DHT22;3089;48.202;11.510;2023-08-12T00:47:16;19.90;99.90
6118;DHT22;3089;48.202;11.510;2023-08-12T00:49:44;19.80;99.90
6118;DHT22;3089;48.202;11.510;2023-08-12T00:52:12;19.80;99.90
6118;DHT22;3089;48.202;11.510;2023-08-12T00:54:41;19.80;99.90
6118;DHT22;3089;48.202;11.510;2023-08-12T00:57:10;19.70;99.90
6118;DHT22;3089;48.202;11.510;2023-08-12T00:59:39;19.60;99.90
6118;DHT22;3089;48.202;11.510;2023-08-12T01:02:09;19.60;99.90
6118;DHT22;3089;48.202;11.510;2023-08-12T01:04:38;19.60;99.90
6118;DHT22;3089;48.202;11.510;2023-08-12T01:07:07;19.60;99.90
6118;DHT22;3089;48.202;11.510;2023-08-12T01:09:35;19.60;99.90
6118;DHT22;3089;48.202;11.510;2023-08-12T01:12:06;19.50;99.90
6118;DHT22;3089;48.202;11.510;2023-08-12T01:14:45;19.50;99.90
6118;DHT22;3089;48.202;11.510;2023-08-12T01:17:15;19.50;99.90
6118;DHT22;3089;48.202;11.510;2023-08-12T01:19:43;19.50;99.90
6118;DHT22;3089;48.202;11.510;2023-08-12T01:22:13;19.50;99.90
6118;DHT22;3089;48.202;11.510;2023-08-12T01:24:43;19.40;99.90
6118;DHT22;3089;48.202;11.510;2023-08-12T01:27:12;19.40;99.90
6118;DHT22;3089;48.202;11.510;2023-08-12T01:29:42;19.40;99.90
6118;DHT22;3089;48.202;11.510;2023-08-12T01:32:14;19.40;99.90
6118;DHT22;3089;48.202;11.510;2023-08-12T01:34:49;19.30;99.90
6118;DHT22;3089;48.202;11.510;2023-08-12T01:37:24;19.30;99.90
6118;DHT22;3089;48.202;11.510;2023-08-12T01:39:54;19.20;99.90
6118;DHT22;3089;48.202;11.510;2023-08-12T01:42:24;19.20;99.90
6118;DHT22;3089;48.202;11.510;2023-08-12T01:44:52;19.20;99.90
6118;DHT22;3089;48.202;11.510;2023-08-12T01:47:20;19.10;99.90
6118;DHT22;3089;48.202;11.510;2023-08-12T01:49:48;19.10;99.90
6118;DHT22;3089;48.202;11.510;2023-08-12T01:52:16;19.10;99.90
6118;DHT22;3089;48.202;11.510;2023-08-12T01:54:44;19.10;99.90
6118;DHT22;3089;48.202;11.510;2023-08-12T01:57:13;19.10;99.90
6118;DHT22;3089;48.202;11.510;2023-08-12T01:59:41;19.10;99.90
6118;DHT22;3089;48.202;11.510;2023-08-12T02:02:10;19.10;99.90
6118;DHT22;3089;48.202;11.510;2023-08-12T02:04:39;19.00;99.90
6118;DHT22;3089;48.202;11.510;2023-08-12T02:07:09;19.00;99.90
6118;DHT22;3089;48.202;11.510;2023-08-12T02:09:38;19.00;99.90
6118;DHT22;3089;48.202;11.510;2023-08-12T02:12:06;18.90;99.90
6118;DHT22;3089;48.202;11.510;2023-08-12T02:14:36;18.90;99.90
6118;DHT22;3089;48.202;11.510;2023-08-12T02:17:03;18.90;99.90
6118;DHT22;3089;48.202;11.510;2023-08-12T02:19:32;18.90;99.90
6118;DHT22;3089;48.202;11.510;2023-08-12T02:22:01;18.90;99.90
6118;DHT22;3089;48.202;11.510;2023-08-12T02:24:30;18.80;99.90
6118;DHT22;3089;48.202;11.510;2023-08-12T02:26:58;18.80;99.90
6118;DHT22;3089;48.202;11.510;2023-08-12T02:29:25;18.80;99.90
6118;DHT22;3089;48.202;11.510;2023-08-12T02:31:55;18.70;99.90
6118;DHT22;3089;48.202;11.510;2023-08-12T02:34:23;18.70;99.90
6118;DHT22;3089;48.202;11.510;2023-08-12T02:36:51;18.70;99.90
6118;DHT22;3089;48.202;11.510;2023-08-12T02:39:18;18.70;99.90
6118;DHT22;3089;48.202;11.510;2023-08-12T02:41:46;18.60;99.90
6118;DHT22;3089;48.202;11.510;2023-08-12T02:44:14;18.60;99.90
6118;DHT22;3089;48.202;11.510;2023-08-12T02:46:42;18.50;99.90
6118;DHT22;3089;48.202;11.510;2023-08-12T02:49:11;18.50;99.90
6118;DHT22;3089;48.202;11.510;2023-08-12T02:51:39;18.50;99.90
6118;DHT22;3089;48.202;11.510;2023-08-12T02:54:07;18.50;99.90
6118;DHT22;3089;48.202;11.510;2023-08-12T02:56:35;18.50;99.90
6118;DHT22;3089;48.202;11.510;2023-08-12T02:59:03;18.50;99.90
6118;DHT22;3089;48.202;11.510;2023-08-12T03:01:31;18.50;99.90
6118;DHT22;3089;48.202;11.510;2023-08-12T03:03:59;18.40;99.90
6118;DHT22;3089;48.202;11.510;2023-08-12T03:06:28;18.40;99.90
6118;DHT22;3089;48.202;11.510;2023-08-12T03:08:56;18.40;99.90
6118;DHT22;3089;48.202;11.510;2023-08-12T03:11:24;18.40;99.90
6118;DHT22;3089;48.202;11.510;2023-08-12T03:13:52;18.30;99.90
6118;DHT22;3089;48.202;11.510;2023-08-12T03:16:20;18.30;99.90
6118;DHT22;3089;48.202;11.510;2023-08-12T03:18:48;18.30;99.90
6118;DHT22;3089;48.202;11.510;2023-08-12T03:21:16;18.30;99.90
6118;DHT22;3089;48.202;11.510;2023-08-12T03:23:45;18.20;99.90
6118;DHT22;3089;48.202;11.510;2023-08-12T03:26:13;18.20;99.90
6118;DHT22;3089;48.202;11.510;2023-08-12T03:28:41;18.20;99.90
6118;DHT22;3089;48.202;11.510;2023-08-12T03:31:09;18.20;99.90
6118;DHT22;3089;48.202;11.510;2023-08-12T03:33:37;18.10;99.90
6118;DHT22;3089;48.202;11.510;2023-08-12T03:36:05;18.10;99.90
6118;DHT22;3089;48.202;11.510;2023-08-12T03:38:33;18.10;99.90
6118;DHT22;3089;48.202;11.510;2023-08-12T03:41:04;18.00;99.90
6118;DHT22;3089;48.202;11.510;2023-08-12T03:43:31;18.00;99.90
6118;DHT22;3089;48.202;11.510;2023-08-12T03:46:01;18.00;99.90
6118;DHT22;3089;48.202;11.510;2023-08-12T03:48:28;17.90;99.90
6118;DHT22;3089;48.202;11.510;2023-08-12T03:50:56;18.00;99.90
6118;DHT22;3089;48.202;11.510;2023-08-12T03:53:24;17.90;99.90
6118;DHT22;3089;48.202;11.510;2023-08-12T03:55:52;17.90;99.90
6118;DHT22;3089;48.202;11.510;2023-08-12T03:58:21;17.90;99.90
6118;DHT22;3089;48.202;11.510;2023-08-12T04:00:49;17.90;99.90
6118;DHT22;3089;48.202;11.510;2023-08-12T04:03:17;17.90;99.90
6118;DHT22;3089;48.202;11.510;2023-08-12T04:05:48;17.90;99.90
6118;DHT22;3089;48.202;11.510;2023-08-12T04:08:19;17.80;99.90
6118;DHT22;3089;48.202;11.510;2023-08-12T04:10:47;17.80;99.90
6118;DHT22;3089;48.202;11.510;2023-08-12T04:13:15;17.80;99.90
6118;DHT22;3089;48.202;11.510;2023-08-12T04:15:48;17.80;99.90
6118;DHT22;3089;48.202;11.510;2023-08-12T04:18:16;17.70;99.90
6118;DHT22;3089;48.202;11.510;2023-08-12T04:20:45;17.70;99.90
6118;DHT22;3089;48.202;11.510;2023-08-12T04:23:13;17.70;99.90
6118;DHT22;3089;48.202;11.510;2023-08-12T04:25:43;17.70;99.90
6118;DHT22;3089;48.202;11.510;2023-08-12T04:28:11;17.70;99.90
6118;DHT22;3089;48.202;11.510;2023-08-12T04:30:41;17.70;99.90
6118;DHT22;3089;48.202;11.510;2023-08-12T04:33:11;17.70;99.90
6118;DHT22;3089;48.202;11.510;2023-08-12T04:35:39;17.70;99.90
6118;DHT22;3089;48.202;11.510;2023-08-12T04:38:07;17.70;99.90
6118;DHT22;3089;48.202;11.510;2023-08-12T04:40:38;17.70;99.90
6118;DHT22;3089;48.202;11.510;2023-08-12T04:43:07;17.70;99.90
6118;DHT22;3089;48.202;11.510;2023-08-12T04:45:36;17.70;99.90
6118;DHT22;3089;48.202;11.510;2023-08-12T04:48:05;17.70;99.90
6118;DHT22;3089;48.202;11.510;2023-08-12T04:50:36;17.70;99.90
6118;DHT22;3089;48.202;11.510;2023-08-12T04:53:05;17.70;99.90
6118;DHT22;3089;48.202;11.510;2023-08-12T04:55:34;17.70;99.90
6118;DHT22;3089;48.202;11.510;2023-08-12T04:58:03;17.70;99.90
6118;DHT22;3089;48.202;11.510;2023-08-12T05:00:31;19.20;99.90
6118;DHT22;3089;48.202;11.510;2023-08-12T05:02:59;20.20;99.90
6118;DHT22;3089;48.202;11.510;2023-08-12T05:05:27;20.60;99.90
6118;DHT22;3089;48.202;11.510;2023-08-12T05:07:56;20.90;99.90
6118;DHT22;3089;48.202;11.510;2023-08-12T05:10:24;21.20;99.90
6118;DHT22;3089;48.202;11.510;2023-08-12T05:12:52;21.40;99.90
6118;DHT22;3089;48.202;11.510;2023-08-12T05:15:21;21.70;99.90
6118;DHT22;3089;48.202;11.510;2023-08-12T05:17:49;21.80;99.90
6118;DHT22;3089;48.202;11.510;2023-08-12T05:20:17;21.90;99.90
6118;DHT22;3089;48.202;11.510;2023-08-12T05:22:45;22.00;99.90
6118;DHT22;3089;48.202;11.510;2023-08-12T05:25:14;22.20;99.90
6118;DHT22;3089;48.202;11.510;2023-08-12T05:27:42;22.00;99.90
6118;DHT22;3089;48.202;11.510;2023-08-12T05:30:11;22.40;99.90
6118;DHT22;3089;48.202;11.510;2023-08-12T05:32:39;21.90;99.90
6118;DHT22;3089;48.202;11.510;2023-08-12T05:35:08;22.20;99.90
6118;DHT22;3089;48.202;11.510;2023-08-12T05:37:35;22.00;99.90
6118;DHT22;3089;48.202;11.510;2023-08-12T05:40:04;22.50;99.90
6118;DHT22;3089;48.202;11.510;2023-08-12T05:42:36;23.20;99.90
6118;DHT22;3089;48.202;11.510;2023-08-12T05:45:05;23.20;99.90
6118;DHT22;3089;48.202;11.510;2023-08-12T05:47:34;23.40;99.90
6118;DHT22;3089;48.202;11.510;2023-08-12T05:50:03;23.60;99.90
6118;DHT22;3089;48.202;11.510;2023-08-12T05:52:31;24.30;99.90
6118;DHT22;3089;48.202;11.510;2023-08-12T05:54:59;24.40;99.90
6118;DHT22;3089;48.202;11.510;2023-08-12T05:57:27;24.40;99.90
6118;DHT22;3089;48.202;11.510;2023-08-12T05:59:56;24.90;99.90
6118;DHT22;3089;48.202;11.510;2023-08-12T06:02:25;25.10;99.90
6118;DHT22;3089;48.202;11.510;2023-08-12T06:04:53;25.10;99.90
6118;DHT22;3089;48.202;11.510;2023-08-12T06:07:21;25.40;99.90
6118;DHT22;3089;48.202;11.510;2023-08-12T06:09:50;25.90;99.90
6118;DHT22;3089;48.202;11.510;2023-08-12T06:12:17;27.00;99.90
6118;DHT22;3089;48.202;11.510;2023-08-12T06:14:45;26.20;99.90
6118;DHT22;3089;48.202;11.510;2023-08-12T06:17:15;26.00;99.90
6118;DHT22;3089;48.202;11.510;2023-08-12T06:19:43;25.00;99.90
6118;DHT22;3089;48.202;11.510;2023-08-12T06:22:11;26.40;99.90
6118;DHT22;3089;48.202;11.510;2023-08-12T06:24:39;27.80;99.90
6118;DHT22;3089;48.202;11.510;2023-08-12T06:27:06;27.60;99.90
6118;DHT22;3089;48.202;11.510;2023-08-12T06:29:34;26.70;99.90
6118;DHT22;3089;48.202;11.510;2023-08-12T06:32:02;26.20;99.90
6118;DHT22;3089;48.202;11.510;2023-08-12T06:34:31;25.10;99.90
6118;DHT22;3089;48.202;11.510;2023-08-12T06:36:59;25.00;99.90
6118;DHT22;3089;48.202;11.510;2023-08-12T06:39:27;25.80;99.90
6118;DHT22;3089;48.202;11.510;2023-08-12T06:41:54;24.80;99.90
6118;DHT22;3089;48.202;11.510;2023-08-12T06:44:22;23.20;99.90
6118;DHT22;3089;48.202;11.510;2023-08-12T06:46:50;23.20;99.90
6118;DHT22;3089;48.202;11.510;2023-08-12T06:49:18;23.30;99.90
6118;DHT22;3089;48.202;11.510;2023-08-12T06:51:47;26.70;99.90
6118;DHT22;3089;48.202;11.510;2023-08-12T06:54:15;27.20;99.90
6118;DHT22;3089;48.202;11.510;2023-08-12T06:56:43;27.10;99.90
6118;DHT22;3089;48.202;11.510;2023-08-12T06:59:11;28.10;99.90
6118;DHT22;3089;48.202;11.510;2023-08-12T07:01:39;29.30;99.90
6118;DHT22;3089;48.202;11.510;2023-08-12T07:04:07;28.60;99.90
6118;DHT22;3089;48.202;11.510;2023-08-12T07:06:35;28.80;99.90
6118;DHT22;3089;48.202;11.510;2023-08-12T07:09:04;29.90;99.90
6118;DHT22;3089;48.202;11.510;2023-08-12T07:11:32;29.20;99.90
6118;DHT22;3089;48.202;11.510;2023-08-12T07:14:00;28.30;99.90
6118;DHT22;3089;48.202;11.510;2023-08-12T07:16:28;25.60;99.90
6118;DHT22;3089;48.202;11.510;2023-08-12T07:18:56;25.10;99.90
6118;DHT22;3089;48.202;11.510;2023-08-12T07:21:23;24.00;99.90
6118;DHT22;3089;48.202;11.510;2023-08-12T07:23:51;23.70;99.90
6118;DHT22;3089;48.202;11.510;2023-08-12T07:26:31;23.80;99.90
6118;DHT22;3089;48.202;11.510;2023-08-12T07:28:58;24.00;99.90
6118;DHT22;3089;48.202;11.510;2023-08-12T07:31:27;24.20;99.90
6118;DHT22;3089;48.202;11.510;2023-08-12T07:33:55;24.50;99.90
6118;DHT22;3089;48.202;11.510;2023-08-12T07:36:22;24.50;99.90
6118;DHT22;3089;48.202;11.510;2023-08-12T07:38:50;24.40;99.90
6118;DHT22;3089;48.202;11.510;2023-08-12T07:41:18;24.30;99.90
6118;DHT22;3089;48.202;11.510;2023-08-12T07:43:47;24.00;99.90
6118;DHT22;3089;48.202;11.510;2023-08-12T07:46:15;24.10;99.90
6118;DHT22;3089;48.202;11.510;2023-08-12T07:48:43;24.10;99.90
6118;DHT22;3089;48.202;11.510;2023-08-12T07:51:11;24.10;99.90
6118;DHT22;3089;48.202;11.510;2023-08-12T07:53:39;24.50;99.90
6118;DHT22;3089;48.202;11.510;2023-08-12T07:56:07;24.30;99.90
6118;DHT22;3089;48.202;11.510;2023-08-12T07:58:36;24.40;99.90
6118;DHT22;3089;48.202;11.510;2023-08-12T08:01:05;23.60;99.90
6118;DHT22;3089;48.202;11.510;2023-08-12T08:03:35;23.90;99.90
6118;DHT22;3089;48.202;11.510;2023-08-12T08:06:03;24.40;99.90
6118;DHT22;3089;48.202;11.510;2023-08-12T08:08:31;24.30;99.90
6118;DHT22;3089;48.202;11.510;2023-08-12T08:10:59;24.70;99.90
6118;DHT22;3089;48.202;11.510;2023-08-12T08:13:27;24.70;99.90
6118;DHT22;3089;48.202;11.510;2023-08-12T08:15:55;25.00;99.90
6118;DHT22;3089;48.202;11.510;2023-08-12T08:18:24;24.60;99.90
6118;DHT22;3089;48.202;11.510;2023-08-12T08:20:52;25.20;99.90
6118;DHT22;3089;48.202;11.510;2023-08-12T08:23:20;25.50;99.90
6118;DHT22;3089;48.202;11.510;2023-08-12T08:25:48;25.50;99.90
6118;DHT22;3089;48.202;11.510;2023-08-12T08:28:16;25.50;99.90
6118;DHT22;3089;48.202;11.510;2023-08-12T08:30:44;25.60;99.90
6118;DHT22;3089;48.202;11.510;2023-08-12T08:33:12;25.50;99.90
6118;DHT22;3089;48.202;11.510;2023-08-12T08:35:41;25.80;99.90
6118;DHT22;3089;48.202;11.510;2023-08-12T08:38:09;25.50;99.90
6118;DHT22;3089;48.202;11.510;2023-08-12T08:40:37;25.50;99.90
6118;DHT22;3089;48.202;11.510;2023-08-12T08:43:07;25.60;99.90
6118;DHT22;3089;48.202;11.510;2023-08-12T08:45:36;25.00;99.90
6118;DHT22;3089;48.202;11.510;2023-08-12T08:48:05;25.50;99.90
6118;DHT22;3089;48.202;11.510;2023-08-12T08:50:34;25.20;99.90
6118;DHT22;3089;48.202;11.510;2023-08-12T08:53:06;25.10;99.90
6118;DHT22;3089;48.202;11.510;2023-08-12T08:55:34;25.50;99.90
6118;DHT22;3089;48.202;11.510;2023-08-12T08:58:03;25.60;99.90
6118;DHT22;3089;48.202;11.510;2023-08-12T09:00:32;25.60;99.90
6118;DHT22;3089;48.202;11.510;2023-08-12T09:03:00;25.50;99.90
6118;DHT22;3089;48.202;11.510;2023-08-12T09:05:30;25.60;99.90
6118;DHT22;3089;48.202;11.510;2023-08-12T09:07:59;25.50;99.90
6118;DHT22;3089;48.202;11.510;2023-08-12T09:10:30;25.30;99.90
6118;DHT22;3089;48.202;11.510;2023-08-12T09:12:58;25.30;99.90
6118;DHT22;3089;48.202;11.510;2023-08-12T09:15:26;25.60;99.90
6118;DHT22;3089;48.202;11.510;2023-08-12T09:17:54;25.60;99.90
6118;DHT22;3089;48.202;11.510;2023-08-12T09:20:22;25.50;99.90
6118;DHT22;3089;48.202;11.510;2023-08-12T09:22:56;25.40;99.90
6118;DHT22;3089;48.202;11.510;2023-08-12T09:25:28;25.80;99.90
6118;DHT22;3089;48.202;11.510;2023-08-12T09:27:58;25.50;99.90
6118;DHT22;3089;48.202;11.510;2023-08-12T09:30:29;24.90;99.90
6118;DHT22;3089;48.202;11.510;2023-08-12T09:33:00;25.10;99.90
6118;DHT22;3089;48.202;11.510;2023-08-12T09:35:33;25.50;99.90
6118;DHT22;3089;48.202;11.510;2023-08-12T09:38:03;25.80;99.90
6118;DHT22;3089;48.202;11.510;2023-08-12T09:40:33;26.10;99.90
6118;DHT22;3089;48.202;11.510;2023-08-12T09:43:02;26.20;99.90
6118;DHT22;3089;48.202;11.510;2023-08-12T09:45:31;26.00;99.90
6118;DHT22;3089;48.202;11.510;2023-08-12T09:47:59;25.80;99.90
6118;DHT22;3089;48.202;11.510;2023-08-12T09:50:28;25.90;99.90
6118;DHT22;3089;48.202;11.510;2023-08-12T09:52:56;25.80;99.90
6118;DHT22;3089;48.202;11.510;2023-08-12T09:55:25;25.90;99.90
6118;DHT22;3089;48.202;11.510;2023-08-12T09:57:55;25.80;99.90
6118;DHT22;3089;48.202;11.510;2023-08-12T10:00:24;26.00;99.90
6118;DHT22;3089;48.202;11.510;2023-08-12T10:02:52;25.90;99.90
6118;DHT22;3089;48.202;11.510;2023-08-12T10:05:23;26.40;99.90
6118;DHT22;3089;48.202;11.510;2023-08-12T10:07:53;27.00;99.90
6118;DHT22;3089;48.202;11.510;2023-08-12T10:10:21;27.10;99.90
6118;DHT22;3089;48.202;11.510;2023-08-12T10:12:50;27.00;99.90
6118;DHT22;3089;48.202;11.510;2023-08-12T10:15:21;27.20;99.90
6118;DHT22;3089;48.202;11.510;2023-08-12T10:17:51;27.40;99.90
6118;DHT22;3089;48.202;11.510;2023-08-12T10:20:21;27.10;99.90
6118;DHT22;3089;48.202;11.510;2023-08-12T10:22:51;26.90;99.90
6118;DHT22;3089;48.202;11.510;2023-08-12T10:25:19;27.40;99.90
6118;DHT22;3089;48.202;11.510;2023-08-12T10:27:49;27.50;99.90
6118;DHT22;3089;48.202;11.510;2023-08-12T10:30:17;26.90;99.90
6118;DHT22;3089;48.202;11.510;2023-08-12T10:32:46;26.50;99.90
6118;DHT22;3089;48.202;11.510;2023-08-12T10:35:14;26.60;99.90
6118;DHT22;3089;48.202;11.510;2023-08-12T10:37:48;27.40;99.90
6118;DHT22;3089;48.202;11.510;2023-08-12T10:40:21;27.50;99.90
6118;DHT22;3089;48.202;11.510;2023-08-12T10:42:50;27.80;99.90
6118;DHT22;3089;48.202;11.510;2023-08-12T10:45:18;27.60;99.90
6118;DHT22;3089;48.202;11.510;2023-08-12T10:48:09;27.70;99.90
6118;DHT22;3089;48.202;11.510;2023-08-12T10:50:38;27.90;99.90
6118;DHT22;3089;48.202;11.510;2023-08-12T10:53:22;28.00;99.90
6118;DHT22;3089;48.202;11.510;2023-08-12T10:55:50;27.60;99.90
6118;DHT22;3089;48.202;11.510;2023-08-12T10:58:28;27.40;99.90
6118;DHT22;3089;48.202;11.510;2023-08-12T11:00:57;27.30;99.90
6118;DHT22;3089;48.202;11.510;2023-08-12T11:03:32;27.50;99.90
6118;DHT22;3089;48.202;11.510;2023-08-12T11:06:04;27.70;99.90
6118;DHT22;3089;48.202;11.510;2023-08-12T11:08:33;27.80;99.90
6118;DHT22;3089;48.202;11.510;2023-08-12T11:11:01;27.90;99.90
6118;DHT22;3089;48.202;11.510;2023-08-12T11:13:29;28.00;99.90
6118;DHT22;3089;48.202;11.510;2023-08-12T11:16:08;28.10;99.90
6118;DHT22;3089;48.202;11.510;2023-08-12T11:18:39;28.10;99.90
6118;DHT22;3089;48.202;11.510;2023-08-12T11:21:08;28.00;99.90
6118;DHT22;3089;48.202;11.510;2023-08-12T11:23:37;28.00;99.90
6118;DHT22;3089;48.202;11.510;2023-08-12T11:26:05;28.00;99.90
6118;DHT22;3089;48.202;11.510;2023-08-12T11:28:33;28.20;99.90
6118;DHT22;3089;48.202;11.510;2023-08-12T11:31:01;28.20;99.90
6118;DHT22;3089;48.202;11.510;2023-08-12T11:33:30;28.30;99.90
6118;DHT22;3089;48.202;11.510;2023-08-12T11:36:00;28.30;99.90
6118;DHT22;3089;48.202;11.510;2023-08-12T11:38:28;28.10;99.90
6118;DHT22;3089;48.202;11.510;2023-08-12T11:41:00;27.80;99.90
6118;DHT22;3089;48.202;11.510;2023-08-12T11:43:28;27.60;99.90
6118;DHT22;3089;48.202;11.510;2023-08-12T11:45:56;27.60;99.90
6118;DHT22;3089;48.202;11.510;2023-08-12T11:48:25;27.80;99.90
6118;DHT22;3089;48.202;11.510;2023-08-12T11:50:55;28.20;99.90
6118;DHT22;3089;48.202;11.510;2023-08-12T11:53:24;28.20;99.90
6118;DHT22;3089;48.202;11.510;2023-08-12T11:55:52;28.30;99.90
6118;DHT22;3089;48.202;11.510;2023-08-12T11:58:20;28.30;99.90
6118;DHT22;3089;48.202;11.510;2023-08-12T12:00:49;28.40;99.90
6118;DHT22;3089;48.202;11.510;2023-08-12T12:03:18;28.60;99.90
6118;DHT22;3089;48.202;11.510;2023-08-12T12:05:46;28.70;99.90
6118;DHT22;3089;48.202;11.510;2023-08-12T12:08:15;28.50;99.90
6118;DHT22;3089;48.202;11.510;2023-08-12T12:10:44;28.30;99.90
6118;DHT22;3089;48.202;11.510;2023-08-12T12:13:12;28.40;99.90
6118;DHT22;3089;48.202;11.510;2023-08-12T12:15:41;28.60;99.90
6118;DHT22;3089;48.202;11.510;2023-08-12T12:18:10;28.50;99.90
6118;DHT22;3089;48.202;11.510;2023-08-12T12:20:53;28.50;99.90
6118;DHT22;3089;48.202;11.510;2023-08-12T12:23:21;28.30;99.90
6118;DHT22;3089;48.202;11.510;2023-08-12T12:25:57;28.30;99.90
6118;DHT22;3089;48.202;11.510;2023-08-12T12:28:25;28.40;99.90
6118;DHT22;3089;48.202;11.510;2023-08-12T12:30:53;28.20;99.90
6118;DHT22;3089;48.202;11.510;2023-08-12T12:33:21;28.40;99.90
6118;DHT22;3089;48.202;11.510;2023-08-12T12:35:49;28.40;99.90
6118;DHT22;3089;48.202;11.510;2023-08-12T12:38:24;28.30;99.90
6118;DHT22;3089;48.202;11.510;2023-08-12T12:40:53;28.20;99.90
6118;DHT22;3089;48.202;11.510;2023-08-12T12:43:21;28.40;99.90
6118;DHT22;3089;48.202;11.510;2023-08-12T12:45:49;28.40;99.90
6118;DHT22;3089;48.202;11.510;2023-08-12T12:48:17;28.40;99.90
6118;DHT22;3089;48.202;11.510;2023-08-12T12:50:45;29.20;99.90
6118;DHT22;3089;48.202;11.510;2023-08-12T12:53:13;29.20;99.90
6118;DHT22;3089;48.202;11.510;2023-08-12T12:55:41;29.00;99.90
6118;DHT22;3089;48.202;11.510;2023-08-12T12:58:10;29.20;99.90
6118;DHT22;3089;48.202;11.510;2023-08-12T13:00:38;28.90;99.90
6118;DHT22;3089;48.202;11.510;2023-08-12T13:03:06;28.70;99.90
6118;DHT22;3089;48.202;11.510;2023-08-12T13:05:34;28.80;99.90
6118;DHT22;3089;48.202;11.510;2023-08-12T13:08:02;28.70;99.90
6118;DHT22;3089;48.202;11.510;2023-08-12T13:10:30;28.60;99.90
6118;DHT22;3089;48.202;11.510;2023-08-12T13:12:58;28.70;99.90
6118;DHT22;3089;48.202;11.510;2023-08-12T13:15:27;28.60;99.90
6118;DHT22;3089;48.202;11.510;2023-08-12T13:17:55;28.60;99.90
6118;DHT22;3089;48.202;11.510;2023-08-12T13:20:23;28.80;99.90
6118;DHT22;3089;48.202;11.510;2023-08-12T13:22:51;28.80;99.90
6118;DHT22;3089;48.202;11.510;2023-08-12T13:25:19;28.60;99.90
6118;DHT22;3089;48.202;11.510;2023-08-12T13:27:46;28.70;99.90
6118;DHT22;3089;48.202;11.510;2023-08-12T13:30:14;28.90;99.90
6118;DHT22;3089;48.202;11.510;2023-08-12T13:32:44;28.90;99.90
6118;DHT22;3089;48.202;11.510;2023-08-12T13:35:11;29.10;99.90
6118;DHT22;3089;48.202;11.510;2023-08-12T13:37:40;29.00;99.90
6118;DHT22;3089;48.202;11.510;2023-08-12T13:40:08;29.10;99.90
6118;DHT22;3089;48.202;11.510;2023-08-12T13:42:38;29.20;99.90
6118;DHT22;3089;48.202;11.510;2023-08-12T13:45:06;29.40;99.90
6118;DHT22;3089;48.202;11.510;2023-08-12T13:47:34;29.50;99.90
6118;DHT22;3089;48.202;11.510;2023-08-12T13:50:07;29.50;99.90
6118;DHT22;3089;48.202;11.510;2023-08-12T13:52:35;29.30;99.90
6118;DHT22;3089;48.202;11.510;2023-08-12T13:55:03;29.40;99.90
6118;DHT22;3089;48.202;11.510;2023-08-12T13:57:31;29.40;99.90
6118;DHT22;3089;48.202;11.510;2023-08-12T13:59:59;29.20;99.90
6118;DHT22;3089;48.202;11.510;2023-08-12T14:02:28;29.30;99.90
6118;DHT22;3089;48.202;11.510;2023-08-12T14:04:56;29.60;99.90
6118;DHT22;3089;48.202;11.510;2023-08-12T14:07:25;29.80;99.90
6118;DHT22;3089;48.202;11.510;2023-08-12T14:09:53;29.70;99.90
6118;DHT22;3089;48.202;11.510;2023-08-12T14:12:21;30.00;99.90
6118;DHT22;3089;48.202;11.510;2023-08-12T14:14:49;30.10;99.90
6118;DHT22;3089;48.202;11.510;2023-08-12T14:17:16;30.20;99.90
6118;DHT22;3089;48.202;11.510;2023-08-12T14:19:48;30.10;99.90
6118;DHT22;3089;48.202;11.510;2023-08-12T14:22:16;29.60;99.90
6118;DHT22;3089;48.202;11.510;2023-08-12T14:24:45;29.90;99.90
6118;DHT22;3089;48.202;11.510;2023-08-12T14:27:14;29.60;99.90
6118;DHT22;3089;48.202;11.510;2023-08-12T14:29:44;29.50;99.90
6118;DHT22;3089;48.202;11.510;2023-08-12T14:32:12;29.70;99.90
6118;DHT22;3089;48.202;11.510;2023-08-12T14:34:42;29.50;99.90
6118;DHT22;3089;48.202;11.510;2023-08-12T14:37:13;29.40;99.90
6118;DHT22;3089;48.202;11.510;2023-08-12T14:39:41;29.10;99.90
6118;DHT22;3089;48.202;11.510;2023-08-12T14:42:11;29.00;99.90
6118;DHT22;3089;48.202;11.510;2023-08-12T14:44:39;29.00;99.90
6118;DHT22;3089;48.202;11.510;2023-08-12T14:47:07;28.80;99.90
6118;DHT22;3089;48.202;11.510;2023-08-12T14:49:35;28.60;99.90
6118;DHT22;3089;48.202;11.510;2023-08-12T14:52:03;28.50;99.90
6118;DHT22;3089;48.202;11.510;2023-08-12T14:54:32;28.50;99.90
6118;DHT22;3089;48.202;11.510;2023-08-12T14:57:00;28.30;99.90
6118;DHT22;3089;48.202;11.510;2023-08-12T14:59:30;28.20;99.90
6118;DHT22;3089;48.202;11.510;2023-08-12T15:01:58;28.20;99.90
6118;DHT22;3089;48.202;11.510;2023-08-12T15:04:26;28.20;99.90
6118;DHT22;3089;48.202;11.510;2023-08-12T15:06:55;28.10;99.90
6118;DHT22;3089;48.202;11.510;2023-08-12T15:09:23;28.10;99.90
6118;DHT22;3089;48.202;11.510;2023-08-12T15:11:51;28.10;99.90
6118;DHT22;3089;48.202;11.510;2023-08-12T15:14:19;28.10;99.90
6118;DHT22;3089;48.202;11.510;2023-08-12T15:16:48;28.10;99.90
6118;DHT22;3089;48.202;11.510;2023-08-12T15:19:16;28.20;99.90
6118;DHT22;3089;48.202;11.510;2023-08-12T15:21:44;28.30;99.90
6118;DHT22;3089;48.202;11.510;2023-08-12T15:24:12;28.20;99.90
6118;DHT22;3089;48.202;11.510;2023-08-12T15:26:40;28.20;99.90
6118;DHT22;3089;48.202;11.510;2023-08-12T15:29:08;28.10;99.90
6118;DHT22;3089;48.202;11.510;2023-08-12T15:31:36;28.00;99.90
6118;DHT22;3089;48.202;11.510;2023-08-12T15:34:06;27.90;99.90
6118;DHT22;3089;48.202;11.510;2023-08-12T15:36:34;28.20;99.90
6118;DHT22;3089;48.202;11.510;2023-08-12T15:39:03;28.30;99.90
6118;DHT22;3089;48.202;11.510;2023-08-12T15:41:30;28.50;99.90
6118;DHT22;3089;48.202;11.510;2023-08-12T15:43:58;28.50;99.90
6118;DHT22;3089;48.202;11.510;2023-08-12T15:46:26;28.50;99.90
6118;DHT22;3089;48.202;11.510;2023-08-12T15:48:54;28.50;99.90
6118;DHT22;3089;48.202;11.510;2023-08-12T15:51:23;28.20;99.90
6118;DHT22;3089;48.202;11.510;2023-08-12T15:53:51;28.20;99.90